Terminal Aerodrome Forecast
Issued by NWS

Home | Current Version | Previous Version | Text Only | Print | Product List | Glossary On
Versions: 1 2 3 4 5 6 7 8 9 10 11 12 13 14 15 16 17 18 19
888
FTUS44 KEWX 122223 AAA
TAFSSF
TAF AMD
KSSF 122223Z 1222/1318 01008KT P6SM SKC
     FM130100 VRB02KT P6SM FEW250
     FM131600 22008KT P6SM SCT250=

USA.gov is the U.S. government's official web portal to all federal, state and local government web resources and services.